Time;durP1;ratioP1;P1;durP2;ratioP2;P2;SDS_P1;SDS_P2;PMS_P1;PMS_P2;Temp;Humidity;BMP_temperature;BMP_pressure;BME280_temperature;BME280_humidity;BME280_pressure;Samples;Min_cycle;Max_cycle;Signal;HPM_P1;HPM_P2
2023/03/01 00:00:48;;;;;;;;;;;;;;;;;;5047372;28;20133;-79
2023/03/01 00:03:13;;;;;;;;;;;;;;;;;;5049223;28;19921;-79
2023/03/01 00:05:38;;;;;;;;;;;;;;;;;;5052380;28;19928;-80
2023/03/01 00:08:03;;;;;;;;;;;;;;;;;;5049066;28;20393;-79
2023/03/01 00:10:28;;;;;;;;;;;;;;;;;;5053446;28;19916;-79
2023/03/01 00:12:55;;;;;;;;;;;;;;;;;;5051122;28;20362;-79
2023/03/01 00:15:20;;;;;;;;;;;;;;;;;;5049090;28;20542;-80
2023/03/01 00:17:45;;;;;;;;;;;;;;;;;;5040149;28;19921;-80
2023/03/01 00:20:10;;;;;;;;;;;;;;;;;;5044740;28;20065;-79
2023/03/01 00:22:35;;;;;;;;;;;;;;;;;;5042020;28;20310;-79
2023/03/01 00:25:00;;;;;;;;;;;;;;;;;;5047494;28;20408;-79
2023/03/01 00:27:26;;;;;;;;;;;;;;;;;;5049819;28;19924;-79
2023/03/01 00:29:51;;;;;;;;;;;;;;;;;;5045699;28;20494;-79
2023/03/01 00:32:16;;;;;;;;;;;;;;;;;;5044314;28;19924;-79
2023/03/01 00:34:41;;;;;;;;;;;;;;;;;;5045124;28;20263;-79
2023/03/01 00:37:06;;;;;;;;;;;;;;;;;;5047279;28;19928;-79
2023/03/01 00:39:32;;;;;;;;;;;;;;;;;;5048939;28;20310;-79
2023/03/01 00:41:57;;;;;;;;;;;;;;;;;;5041134;28;19916;-79
2023/03/01 00:44:22;;;;;;;;;;;;;;;;;;5050250;28;20124;-79
2023/03/01 00:46:48;;;;;;;;;;;;;;;;;;5049992;28;19939;-79
2023/03/01 00:49:13;;;;;;;;;;;;;;;;;;5048416;28;19943;-79
2023/03/01 00:51:41;;;;;;;;;;;;;;;;;;5049287;28;19920;-79
2023/03/01 00:54:06;;;;;;;;;;;;;;;;;;5045346;28;19917;-79
2023/03/01 00:56:31;;;;;;;;;;;;;;;;;;5046245;28;20003;-79
2023/03/01 00:58:56;;;;;;;;;;;;;;;;;;5045265;28;19928;-79
2023/03/01 01:01:21;;;;;;;;;;;;;;;;;;5042414;28;19959;-79
2023/03/01 01:03:47;;;;;;;;;;;;;;;;;;5042684;28;19913;-79
2023/03/01 01:06:12;;;;;;;;;;;;;;;;;;5046966;28;19975;-79
2023/03/01 01:08:37;;;;;;;;;;;;;;;;;;5034942;28;20207;-79
2023/03/01 01:11:02;;;;;;;;;;;;;;;;;;5044824;28;20252;-79
2023/03/01 01:13:27;;;;;;;;;;;;;;;;;;5044838;28;19967;-79
2023/03/01 01:15:52;;;;;;;;;;;;;;;;;;5045276;28;20276;-79
2023/03/01 01:18:17;;;;;;;;;;;;;;;;;;5044395;28;19946;-79
2023/03/01 01:20:43;;;;;;;;;;;;;;;;;;5040299;28;20441;-79
2023/03/01 01:23:08;;;;;;;;;;;;;;;;;;5041812;28;19987;-79
2023/03/01 01:25:33;;;;;;;;;;;;;;;;;;5044098;28;20383;-79
2023/03/01 01:27:58;;;;;;;;;;;;;;;;;;5042302;28;19962;-79
2023/03/01 01:30:24;;;;;;;;;;;;;;;;;;5043768;28;19996;-78
2023/03/01 01:32:49;;;;;;;;;;;;;;;;;;5041405;28;19955;-79
2023/03/01 01:35:14;;;;;;;;;;;;;;;;;;5043047;28;20019;-79
2023/03/01 01:37:39;;;;;;;;;;;;;;;;;;5044225;28;19928;-79
2023/03/01 01:40:04;;;;;;;;;;;;;;;;;;5047031;28;19999;-78
2023/03/01 01:42:29;;;;;;;;;;;;;;;;;;5025363;28;19913;-78
2023/03/01 01:44:55;;;;;;;;;;;;;;;;;;5045188;28;19921;-79
2023/03/01 01:47:20;;;;;;;;;;;;;;;;;;5040712;28;19975;-79
2023/03/01 01:49:45;;;;;;;;;;;;;;;;;;5043052;28;19917;-79
2023/03/01 01:52:10;;;;;;;;;;;;;;;;;;5043385;28;20498;-78
2023/03/01 01:54:35;;;;;;;;;;;;;;;;;;5045587;28;19912;-78
2023/03/01 01:57:01;;;;;;;;;;;;;;;;;;5044183;28;19947;-78
2023/03/01 01:59:26;;;;;;;;;;;;;;;;;;5042952;28;19956;-79
2023/03/01 02:01:51;;;;;;;;;;;;;;;;;;5039624;28;19913;-79
2023/03/01 02:04:16;;;;;;;;;;;;;;;;;;5042818;28;19916;-78
2023/03/01 02:06:41;;;;;;;;;;;;;;;;;;5045588;28;19970;-78
2023/03/01 02:09:06;;;;;;;;;;;;;;;;;;5041269;28;20131;-78
2023/03/01 02:11:32;;;;;;;;;;;;;;;;;;5029494;28;19992;-79
2023/03/01 02:13:57;;;;;;;;;;;;;;;;;;5037734;28;19917;-78
2023/03/01 02:16:22;;;;;;;;;;;;;;;;;;5043955;28;19913;-79
2023/03/01 02:18:47;;;;;;;;;;;;;;;;;;5044579;28;20012;-79
2023/03/01 02:21:12;;;;;;;;;;;;;;;;;;5043525;28;20108;-79
2023/03/01 02:23:38;;;;;;;;;;;;;;;;;;5041975;28;19917;-78
2023/03/01 02:26:05;;;;;;;;;;;;;;;;;;5025413;28;20053;-78
2023/03/01 02:28:31;;;;;;;;;;;;;;;;;;5044346;28;20236;-78
2023/03/01 02:33:40;;;;;;;;;;;;;;;;;;5045066;28;20294;-78
2023/03/01 02:36:05;;;;;;;;;;;;;;;;;;5045543;28;19917;-78
2023/03/01 02:38:30;;;;;;;;;;;;;;;;;;5042135;28;19917;-78
2023/03/01 02:40:55;;;;;;;;;;;;;;;;;;5039733;28;19984;-78
2023/03/01 02:43:20;;;;;;;;;;;;;;;;;;5041313;28;20143;-78
2023/03/01 02:45:45;;;;;;;;;;;;;;;;;;5042640;28;20347;-78
2023/03/01 02:48:11;;;;;;;;;;;;;;;;;;5024557;28;19920;-78
2023/03/01 02:50:36;;;;;;;;;;;;;;;;;;5043130;28;20390;-78
2023/03/01 02:53:01;;;;;;;;;;;;;;;;;;5041935;28;19921;-78
2023/03/01 02:55:27;;;;;;;;;;;;;;;;;;5039558;28;20396;-78
2023/03/01 02:57:52;;;;;;;;;;;;;;;;;;5040680;28;19916;-78
2023/03/01 03:00:20;;;;;;;;;;;;;;;;;;5039034;28;19927;-78
2023/03/01 03:02:45;;;;;;;;;;;;;;;;;;5040326;28;20374;-78
2023/03/01 03:05:10;;;;;;;;;;;;;;;;;;5039376;28;19912;-78
2023/03/01 03:07:36;;;;;;;;;;;;;;;;;;5037382;28;19920;-78
2023/03/01 03:10:01;;;;;;;;;;;;;;;;;;5044286;28;20979;-78
2023/03/01 03:12:26;;;;;;;;;;;;;;;;;;5037224;28;19919;-78
2023/03/01 03:14:52;;;;;;;;;;;;;;;;;;5044011;28;19913;-78
2023/03/01 03:17:17;;;;;;;;;;;;;;;;;;5041310;28;20004;-78
2023/03/01 03:19:45;;;;;;;;;;;;;;;;;;5041964;28;20164;-78
2023/03/01 03:22:10;;;;;;;;;;;;;;;;;;5041387;28;19995;-78
2023/03/01 03:24:37;;;;;;;;;;;;;;;;;;5041044;28;20419;-78
2023/03/01 03:27:03;;;;;;;;;;;;;;;;;;5037124;28;19920;-78
2023/03/01 03:29:28;;;;;;;;;;;;;;;;;;5042345;28;19967;-78
2023/03/01 03:31:53;;;;;;;;;;;;;;;;;;5043282;28;19916;-78
2023/03/01 03:34:18;;;;;;;;;;;;;;;;;;5040970;28;19943;-78
2023/03/01 03:36:43;;;;;;;;;;;;;;;;;;5042675;28;19916;-78
2023/03/01 03:39:08;;;;;;;;;;;;;;;;;;5044940;28;20007;-78
2023/03/01 03:41:33;;;;;;;;;;;;;;;;;;5039581;28;19951;-78
2023/03/01 03:43:59;;;;;;;;;;;;;;;;;;5041910;28;20007;-78
2023/03/01 03:46:24;;;;;;;;;;;;;;;;;;5041725;28;20460;-78
2023/03/01 03:48:49;;;;;;;;;;;;;;;;;;5035748;28;20004;-78
2023/03/01 03:51:15;;;;;;;;;;;;;;;;;;5046581;28;19921;-78
2023/03/01 03:53:40;;;;;;;;;;;;;;;;;;5044234;28;20452;-78
2023/03/01 03:56:05;;;;;;;;;;;;;;;;;;5037440;28;19920;-78
2023/03/01 03:58:30;;;;;;;;;;;;;;;;;;5039956;28;19918;-78
2023/03/01 04:00:55;;;;;;;;;;;;;;;;;;5043184;28;20377;-77
2023/03/01 04:03:21;;;;;;;;;;;;;;;;;;5046123;28;19939;-78
2023/03/01 04:05:47;;;;;;;;;;;;;;;;;;5047578;28;19917;-78
2023/03/01 04:08:12;;;;;;;;;;;;;;;;;;5042224;28;20570;-78
2023/03/01 04:10:37;;;;;;;;;;;;;;;;;;5046838;28;19913;-78
2023/03/01 04:13:02;;;;;;;;;;;;;;;;;;5044812;28;20035;-78
2023/03/01 04:15:28;;;;;;;;;;;;;;;;;;5040459;28;19996;-78
2023/03/01 04:17:53;;;;;;;;;;;;;;;;;;5038862;28;20406;-78
2023/03/01 04:20:20;;;;;;;;;;;;;;;;;;5048624;28;19923;-78
2023/03/01 04:22:46;;;;;;;;;;;;;;;;;;5044270;28;19913;-78
2023/03/01 04:25:13;;;;;;;;;;;;;;;;;;5040556;28;19935;-78
2023/03/01 04:27:38;;;;;;;;;;;;;;;;;;5043473;28;19921;-78
2023/03/01 04:30:04;;;;;;;;;;;;;;;;;;5043243;28;19923;-78
2023/03/01 04:32:29;;;;;;;;;;;;;;;;;;5041947;28;20407;-78
2023/03/01 04:34:54;;;;;;;;;;;;;;;;;;5041906;28;19947;-78
2023/03/01 04:37:19;;;;;;;;;;;;;;;;;;5041620;28;20342;-78
2023/03/01 04:39:47;;;;;;;;;;;;;;;;;;5029029;28;19913;-78
2023/03/01 04:42:13;;;;;;;;;;;;;;;;;;5051418;28;20055;-78
2023/03/01 04:44:38;;;;;;;;;;;;;;;;;;5045085;28;20031;-78
2023/03/01 04:47:03;;;;;;;;;;;;;;;;;;5048863;28;19931;-78
2023/03/01 04:49:28;;;;;;;;;;;;;;;;;;5041998;28;19913;-78
2023/03/01 04:51:53;;;;;;;;;;;;;;;;;;5042931;28;19924;-78
2023/03/01 04:54:18;;;;;;;;;;;;;;;;;;5047891;28;19959;-78
2023/03/01 04:56:44;;;;;;;;;;;;;;;;;;5043514;28;19924;-78
2023/03/01 04:59:09;;;;;;;;;;;;;;;;;;5045243;28;19920;-78
2023/03/01 05:01:35;;;;;;;;;;;;;;;;;;5042841;28;20362;-78
2023/03/01 05:04:02;;;;;;;;;;;;;;;;;;5045198;28;20310;-78
2023/03/01 05:06:28;;;;;;;;;;;;;;;;;;5043950;28;19913;-78
2023/03/01 05:08:53;;;;;;;;;;;;;;;;;;5046383;28;20447;-78
2023/03/01 05:11:18;;;;;;;;;;;;;;;;;;5046800;28;19919;-78
2023/03/01 05:13:43;;;;;;;;;;;;;;;;;;5044121;28;19920;-78
2023/03/01 05:16:11;;;;;;;;;;;;;;;;;;5043637;28;20404;-78
2023/03/01 05:18:37;;;;;;;;;;;;;;;;;;5042954;28;20385;-78
2023/03/01 05:21:03;;;;;;;;;;;;;;;;;;5041101;28;20205;-78
2023/03/01 05:23:28;;;;;;;;;;;;;;;;;;5044122;28;20417;-78
2023/03/01 05:25:54;;;;;;;;;;;;;;;;;;5038810;28;19917;-78
2023/03/01 05:28:19;;;;;;;;;;;;;;;;;;5035344;28;20042;-78
2023/03/01 05:30:45;;;;;;;;;;;;;;;;;;5037047;28;20294;-78
2023/03/01 05:33:13;;;;;;;;;;;;;;;;;;5039351;28;20108;-77
2023/03/01 05:35:38;;;;;;;;;;;;;;;;;;5037513;28;19917;-78
2023/03/01 05:38:03;;;;;;;;;;;;;;;;;;5037623;28;19954;-77
2023/03/01 05:40:29;;;;;;;;;;;;;;;;;;5039955;28;19944;-78
2023/03/01 05:42:54;;;;;;;;;;;;;;;;;;5037167;28;19917;-78
2023/03/01 05:45:19;;;;;;;;;;;;;;;;;;5036581;28;20011;-78
2023/03/01 05:47:44;;;;;;;;;;;;;;;;;;5034442;28;19948;-78
2023/03/01 05:50:09;;;;;;;;;;;;;;;;;;5038821;28;20425;-78
2023/03/01 05:52:34;;;;;;;;;;;;;;;;;;5039741;28;19913;-78
2023/03/01 05:55:00;;;;;;;;;;;;;;;;;;5041312;28;19920;-78
2023/03/01 05:57:25;;;;;;;;;;;;;;;;;;5034935;28;20314;-78
2023/03/01 05:59:50;;;;;;;;;;;;;;;;;;5036747;28;19920;-79
2023/03/01 06:02:16;;;;;;;;;;;;;;;;;;5035499;28;19913;-78
2023/03/01 06:04:41;;;;;;;;;;;;;;;;;;5038478;28;19919;-78
2023/03/01 06:07:06;;;;;;;;;;;;;;;;;;5037369;28;20044;-78
2023/03/01 06:09:31;;;;;;;;;;;;;;;;;;5037169;28;19909;-78
2023/03/01 06:11:56;;;;;;;;;;;;;;;;;;5040872;28;20000;-78
2023/03/01 06:14:21;;;;;;;;;;;;;;;;;;5038282;28;20283;-78
2023/03/01 06:16:47;;;;;;;;;;;;;;;;;;5035135;28;20394;-78
2023/03/01 06:19:12;;;;;;;;;;;;;;;;;;5042912;28;19921;-78
2023/03/01 06:21:37;;;;;;;;;;;;;;;;;;5044329;28;20358;-77
2023/03/01 06:24:02;;;;;;;;;;;;;;;;;;5041429;28;20144;-78
2023/03/01 06:26:28;;;;;;;;;;;;;;;;;;5040017;28;20353;-78
2023/03/01 06:28:53;;;;;;;;;;;;;;;;;;5038371;28;19948;-78
2023/03/01 06:31:18;;;;;;;;;;;;;;;;;;5040429;28;20355;-77
2023/03/01 06:33:44;;;;;;;;;;;;;;;;;;5040339;28;19921;-78
2023/03/01 06:36:09;;;;;;;;;;;;;;;;;;5038775;28;19912;-78
2023/03/01 06:38:35;;;;;;;;;;;;;;;;;;5036949;28;19919;-78
2023/03/01 06:41:01;;;;;;;;;;;;;;;;;;5037291;28;19917;-78
2023/03/01 06:43:26;;;;;;;;;;;;;;;;;;5044206;28;19917;-79
2023/03/01 06:45:51;;;;;;;;;;;;;;;;;;5038287;28;19935;-78
2023/03/01 06:48:16;;;;;;;;;;;;;;;;;;5042280;28;19916;-78
2023/03/01 06:50:41;;;;;;;;;;;;;;;;;;5035927;28;19959;-79
2023/03/01 06:53:06;;;;;;;;;;;;;;;;;;5039532;28;20003;-78
2023/03/01 06:55:32;;;;;;;;;;;;;;;;;;5037472;28;19913;-78
2023/03/01 06:57:57;;;;;;;;;;;;;;;;;;5033384;28;19948;-78
2023/03/01 07:00:22;;;;;;;;;;;;;;;;;;5033956;28;20342;-78
2023/03/01 07:02:47;;;;;;;;;;;;;;;;;;5041322;28;19940;-78
2023/03/01 07:05:12;;;;;;;;;;;;;;;;;;5038458;28;19917;-79
2023/03/01 07:07:37;;;;;;;;;;;;;;;;;;5038136;28;19960;-79
2023/03/01 07:10:03;;;;;;;;;;;;;;;;;;5035954;28;19923;-79
2023/03/01 07:12:28;;;;;;;;;;;;;;;;;;5031274;28;19921;-79
2023/03/01 07:14:53;;;;;;;;;;;;;;;;;;5041420;28;20115;-79
2023/03/01 07:17:18;;;;;;;;;;;;;;;;;;5041870;28;19913;-79
2023/03/01 07:19:44;;;;;;;;;;;;;;;;;;5042758;28;20179;-79
2023/03/01 07:22:09;;;;;;;;;;;;;;;;;;5038529;28;19927;-79
2023/03/01 07:24:35;;;;;;;;;;;;;;;;;;5037481;28;20000;-79
2023/03/01 07:27:00;;;;;;;;;;;;;;;;;;5048391;28;20459;-80
2023/03/01 07:29:25;;;;;;;;;;;;;;;;;;5047530;28;19956;-80
2023/03/01 07:31:50;;;;;;;;;;;;;;;;;;5041842;28;20333;-80
2023/03/01 07:34:15;;;;;;;;;;;;;;;;;;5037357;28;20386;-80
2023/03/01 07:36:42;;;;;;;;;;;;;;;;;;5044084;28;19959;-80
2023/03/01 07:39:08;;;;;;;;;;;;;;;;;;5042339;28;20497;-80
2023/03/01 07:41:33;;;;;;;;;;;;;;;;;;5039350;28;19998;-80
2023/03/01 07:43:58;;;;;;;;;;;;;;;;;;5046302;28;19928;-81
2023/03/01 07:46:23;;;;;;;;;;;;;;;;;;5046601;28;20007;-81
2023/03/01 07:48:48;;;;;;;;;;;;;;;;;;5047211;28;20341;-81
2023/03/01 07:51:13;;;;;;;;;;;;;;;;;;5045764;28;19944;-81
2023/03/01 07:53:39;;;;;;;;;;;;;;;;;;5042348;28;20337;-81
2023/03/01 07:56:04;;;;;;;;;;;;;;;;;;5044467;28;19920;-81
2023/03/01 07:58:29;;;;;;;;;;;;;;;;;;5047760;28;19919;-81
2023/03/01 08:00:54;;;;;;;;;;;;;;;;;;5039267;28;19971;-81
2023/03/01 08:03:19;;;;;;;;;;;;;;;;;;5046186;28;19913;-81
2023/03/01 08:05:45;;;;;;;;;;;;;;;;;;5044643;28;19991;-81
2023/03/01 08:08:10;;;;;;;;;;;;;;;;;;5044149;28;19920;-81
2023/03/01 08:10:35;;;;;;;;;;;;;;;;;;5040998;28;19974;-81
2023/03/01 08:13:00;;;;;;;;;;;;;;;;;;5044662;28;19928;-81
2023/03/01 08:15:25;;;;;;;;;;;;;;;;;;5048086;28;20326;-81
2023/03/01 08:17:51;;;;;;;;;;;;;;;;;;5040970;28;19917;-81
2023/03/01 08:20:16;;;;;;;;;;;;;;;;;;5045870;28;19924;-81
2023/03/01 08:22:41;;;;;;;;;;;;;;;;;;5048508;28;19916;-82
2023/03/01 08:25:06;;;;;;;;;;;;;;;;;;5044772;28;19921;-81
2023/03/01 08:27:32;;;;;;;;;;;;;;;;;;5046002;28;19962;-82
2023/03/01 08:29:57;;;;;;;;;;;;;;;;;;5041132;28;20308;-81
2023/03/01 08:32:22;;;;;;;;;;;;;;;;;;5028068;28;19963;-82
2023/03/01 08:34:47;;;;;;;;;;;;;;;;;;5045660;28;20118;-81
2023/03/01 08:37:12;;;;;;;;;;;;;;;;;;5047273;28;20482;-81
2023/03/01 08:39:37;;;;;;;;;;;;;;;;;;5037311;28;19921;-81
2023/03/01 08:42:03;;;;;;;;;;;;;;;;;;5045426;28;19917;-81
2023/03/01 08:44:28;;;;;;;;;;;;;;;;;;5041280;28;19913;-82
2023/03/01 08:46:55;;;;;;;;;;;;;;;;;;5044859;28;19931;-81
2023/03/01 08:49:20;;;;;;;;;;;;;;;;;;5039394;28;20402;-82
2023/03/01 08:51:45;;;;;;;;;;;;;;;;;;5045810;28;19956;-82
2023/03/01 08:54:11;;;;;;;;;;;;;;;;;;5043866;28;20283;-82
2023/03/01 08:56:36;;;;;;;;;;;;;;;;;;5042087;28;20055;-81
2023/03/01 08:59:01;;;;;;;;;;;;;;;;;;5043101;28;20547;-81
2023/03/01 09:01:26;;;;;;;;;;;;;;;;;;5041995;28;19917;-82
2023/03/01 09:03:51;;;;;;;;;;;;;;;;;;5048398;28;19912;-82
2023/03/01 09:06:17;;;;;;;;;;;;;;;;;;5043069;28;20000;-82
2023/03/01 09:08:42;;;;;;;;;;;;;;;;;;5036551;28;19920;-82
2023/03/01 09:11:07;;;;;;;;;;;;;;;;;;5039569;28;19916;-81
2023/03/01 09:13:32;;;;;;;;;;;;;;;;;;5040997;28;20011;-82
2023/03/01 09:15:57;;;;;;;;;;;;;;;;;;5039957;28;20352;-82
2023/03/01 09:18:23;;;;;;;;;;;;;;;;;;5041753;28;19928;-81
2023/03/01 09:20:48;;;;;;;;;;;;;;;;;;5049209;28;19912;-81
2023/03/01 09:23:13;;;;;;;;;;;;;;;;;;5042104;28;20007;-81
2023/03/01 09:25:38;;;;;;;;;;;;;;;;;;5045384;28;19913;-81
2023/03/01 09:28:03;;;;;;;;;;;;;;;;;;5041753;28;19940;-81
2023/03/01 09:30:29;;;;;;;;;;;;;;;;;;5049452;28;19913;-81
2023/03/01 09:32:54;;;;;;;;;;;;;;;;;;5041946;28;20100;-81
2023/03/01 09:35:19;;;;;;;;;;;;;;;;;;5043781;28;19913;-82
2023/03/01 09:37:45;;;;;;;;;;;;;;;;;;5046253;28;19913;-81
2023/03/01 09:40:10;;;;;;;;;;;;;;;;;;5041548;28;20290;-81
2023/03/01 09:42:35;;;;;;;;;;;;;;;;;;5042209;28;19912;-81
2023/03/01 09:45:00;;;;;;;;;;;;;;;;;;5043801;28;20387;-81
2023/03/01 09:47:26;;;;;;;;;;;;;;;;;;5045559;28;19967;-81
2023/03/01 09:49:51;;;;;;;;;;;;;;;;;;5036692;28;20012;-81
2023/03/01 09:52:16;;;;;;;;;;;;;;;;;;5044854;28;20374;-81
2023/03/01 09:54:41;;;;;;;;;;;;;;;;;;5041888;28;19920;-81
2023/03/01 09:57:06;;;;;;;;;;;;;;;;;;5041729;28;20062;-81
2023/03/01 09:59:33;;;;;;;;;;;;;;;;;;5039163;28;19956;-81
2023/03/01 10:01:58;;;;;;;;;;;;;;;;;;5036502;28;19936;-81
2023/03/01 10:04:24;;;;;;;;;;;;;;;;;;5045689;28;19917;-82
2023/03/01 10:06:49;;;;;;;;;;;;;;;;;;5037907;28;19948;-81
2023/03/01 10:09:14;;;;;;;;;;;;;;;;;;5048659;28;20266;-82
2023/03/01 10:11:40;;;;;;;;;;;;;;;;;;5043171;28;21407;-82
2023/03/01 10:14:05;;;;;;;;;;;;;;;;;;5047392;28;19925;-82
2023/03/01 10:16:30;;;;;;;;;;;;;;;;;;5038628;28;19919;-82
2023/03/01 10:18:55;;;;;;;;;;;;;;;;;;5045240;28;19912;-82
2023/03/01 10:21:20;;;;;;;;;;;;;;;;;;5037447;28;19965;-81
2023/03/01 10:23:45;;;;;;;;;;;;;;;;;;5049378;28;19913;-82
2023/03/01 10:26:11;;;;;;;;;;;;;;;;;;5030804;28;19913;-81
2023/03/01 10:28:36;;;;;;;;;;;;;;;;;;5043418;28;19924;-82
2023/03/01 10:31:01;;;;;;;;;;;;;;;;;;5042377;28;20059;-82
2023/03/01 10:33:26;;;;;;;;;;;;;;;;;;5039004;28;19920;-82
2023/03/01 10:35:51;;;;;;;;;;;;;;;;;;5039640;28;19917;-82
2023/03/01 10:38:16;;;;;;;;;;;;;;;;;;5032385;28;19921;-82
2023/03/01 10:40:42;;;;;;;;;;;;;;;;;;5036867;28;19917;-82
2023/03/01 10:43:07;;;;;;;;;;;;;;;;;;5041525;28;19917;-82
2023/03/01 10:45:33;;;;;;;;;;;;;;;;;;5042922;28;19913;-83
2023/03/01 10:47:58;;;;;;;;;;;;;;;;;;5041420;28;19924;-83
2023/03/01 10:50:23;;;;;;;;;;;;;;;;;;5037085;28;19956;-83
2023/03/01 10:52:48;;;;;;;;;;;;;;;;;;5037661;28;19913;-82
2023/03/01 10:55:13;;;;;;;;;;;;;;;;;;5042293;28;19918;-83
2023/03/01 10:57:40;;;;;;;;;;;;;;;;;;5041425;28;20502;-83
2023/03/01 11:00:06;;;;;;;;;;;;;;;;;;5043576;28;19921;-83
2023/03/01 11:02:33;;;;;;;;;;;;;;;;;;5047290;28;19966;-83
2023/03/01 11:04:58;;;;;;;;;;;;;;;;;;5037067;28;19985;-83
2023/03/01 11:07:24;;;;;;;;;;;;;;;;;;5042045;28;19967;-83
2023/03/01 11:09:49;;;;;;;;;;;;;;;;;;5039972;28;20278;-83
2023/03/01 11:12:14;;;;;;;;;;;;;;;;;;5044088;28;19924;-83
2023/03/01 11:14:40;;;;;;;;;;;;;;;;;;5043006;28;20008;-83
2023/03/01 11:17:05;;;;;;;;;;;;;;;;;;5048510;28;20304;-83
2023/03/01 11:19:31;;;;;;;;;;;;;;;;;;5030541;28;19962;-83
2023/03/01 11:21:56;;;;;;;;;;;;;;;;;;5041842;28;19913;-83
2023/03/01 11:24:21;;;;;;;;;;;;;;;;;;5030960;28;20011;-83
2023/03/01 11:26:46;;;;;;;;;;;;;;;;;;5029234;28;19960;-84
2023/03/01 11:29:12;;;;;;;;;;;;;;;;;;5044201;28;19921;-83
2023/03/01 11:31:37;;;;;;;;;;;;;;;;;;5041424;28;19966;-83
2023/03/01 11:34:02;;;;;;;;;;;;;;;;;;5045138;28;19913;-83
2023/03/01 11:36:27;;;;;;;;;;;;;;;;;;5039347;28;20354;-83
2023/03/01 11:38:52;;;;;;;;;;;;;;;;;;5039230;28;20058;-84
2023/03/01 11:41:18;;;;;;;;;;;;;;;;;;5043972;28;20287;-83
2023/03/01 11:43:43;;;;;;;;;;;;;;;;;;5040390;28;19919;-84
2023/03/01 11:46:08;;;;;;;;;;;;;;;;;;5038725;28;19947;-84
2023/03/01 11:48:33;;;;;;;;;;;;;;;;;;5034912;28;20275;-84
2023/03/01 11:50:58;;;;;;;;;;;;;;;;;;5033373;28;19917;-83
2023/03/01 11:53:23;;;;;;;;;;;;;;;;;;5040487;28;19913;-83
2023/03/01 11:55:49;;;;;;;;;;;;;;;;;;5047857;28;19940;-84
2023/03/01 11:58:14;;;;;;;;;;;;;;;;;;5039376;28;20379;-83
2023/03/01 12:00:39;;;;;;;;;;;;;;;;;;5035145;28;19925;-83
2023/03/01 12:03:04;;;;;;;;;;;;;;;;;;5040054;28;20451;-83
2023/03/01 12:05:29;;;;;;;;;;;;;;;;;;5033950;28;19917;-82
2023/03/01 12:07:54;;;;;;;;;;;;;;;;;;5040956;28;19927;-82
2023/03/01 12:10:20;;;;;;;;;;;;;;;;;;5041223;28;20340;-82
2023/03/01 12:12:45;;;;;;;;;;;;;;;;;;5038167;28;20546;-82
2023/03/01 12:15:10;;;;;;;;;;;;;;;;;;5039294;28;19916;-82
2023/03/01 12:17:36;;;;;;;;;;;;;;;;;;5044911;28;19917;-82
2023/03/01 12:20:01;;;;;;;;;;;;;;;;;;5043047;28;19920;-83
2023/03/01 12:22:26;;;;;;;;;;;;;;;;;;5038817;28;20483;-83
2023/03/01 12:24:51;;;;;;;;;;;;;;;;;;5044530;28;20428;-83
2023/03/01 12:27:18;;;;;;;;;;;;;;;;;;5053170;28;19912;-83
2023/03/01 12:29:43;;;;;;;;;;;;;;;;;;5044859;28;19916;-83
2023/03/01 12:32:09;;;;;;;;;;;;;;;;;;5040360;28;19943;-83
2023/03/01 12:34:34;;;;;;;;;;;;;;;;;;5038291;28;20393;-83
2023/03/01 12:36:59;;;;;;;;;;;;;;;;;;5042617;28;19924;-83
2023/03/01 12:39:24;;;;;;;;;;;;;;;;;;5025782;28;19916;-83
2023/03/01 12:41:49;;;;;;;;;;;;;;;;;;5041868;28;19916;-83
2023/03/01 12:44:15;;;;;;;;;;;;;;;;;;5044694;28;19966;-83
2023/03/01 12:46:40;;;;;;;;;;;;;;;;;;5044555;28;19916;-83
2023/03/01 12:49:05;;;;;;;;;;;;;;;;;;5028793;28;20012;-83
2023/03/01 12:51:31;;;;;;;;;;;;;;;;;;5037585;28;19913;-83
2023/03/01 12:53:56;;;;;;;;;;;;;;;;;;5043761;28;20321;-83
2023/03/01 12:56:22;;;;;;;;;;;;;;;;;;5044230;28;19943;-82
2023/03/01 12:58:47;;;;;;;;;;;;;;;;;;5038213;28;20367;-83
2023/03/01 13:01:14;;;;;;;;;;;;;;;;;;5039416;28;19925;-83
2023/03/01 13:03:39;;;;;;;;;;;;;;;;;;5046094;28;19917;-83
2023/03/01 13:06:04;;;;;;;;;;;;;;;;;;5039138;28;19991;-83
2023/03/01 13:08:29;;;;;;;;;;;;;;;;;;5029410;28;19917;-83
2023/03/01 13:10:54;;;;;;;;;;;;;;;;;;5043595;28;19989;-83
2023/03/01 13:13:20;;;;;;;;;;;;;;;;;;5043906;28;19917;-83
2023/03/01 13:15:47;;;;;;;;;;;;;;;;;;5045888;28;20305;-83
2023/03/01 13:18:12;;;;;;;;;;;;;;;;;;5047386;28;19935;-84
2023/03/01 13:20:37;;;;;;;;;;;;;;;;;;5045515;28;20374;-83
2023/03/01 13:23:03;;;;;;;;;;;;;;;;;;5043711;28;20393;-84
2023/03/01 13:25:28;;;;;;;;;;;;;;;;;;5047619;28;19913;-83
2023/03/01 13:27:53;;;;;;;;;;;;;;;;;;5037963;28;19920;-83
2023/03/01 13:30:18;;;;;;;;;;;;;;;;;;5043619;28;19936;-84
2023/03/01 13:32:43;;;;;;;;;;;;;;;;;;5043746;28;19925;-84
2023/03/01 13:35:09;;;;;;;;;;;;;;;;;;5036678;28;19923;-83
2023/03/01 13:37:34;;;;;;;;;;;;;;;;;;5044495;28;19927;-83
2023/03/01 13:40:03;;;;;;;;;;;;;;;;;;5029199;28;20448;-83
2023/03/01 13:42:28;;;;;;;;;;;;;;;;;;5046185;28;19913;-83
2023/03/01 13:44:53;;;;;;;;;;;;;;;;;;5046643;28;19922;-83
2023/03/01 13:47:19;;;;;;;;;;;;;;;;;;5046236;28;19946;-83
2023/03/01 13:49:44;;;;;;;;;;;;;;;;;;5041139;28;19917;-83
2023/03/01 13:52:09;;;;;;;;;;;;;;;;;;5045556;28;19970;-83
2023/03/01 13:54:34;;;;;;;;;;;;;;;;;;5044835;28;19923;-83
2023/03/01 13:57:00;;;;;;;;;;;;;;;;;;5040755;28;19954;-83
2023/03/01 13:59:26;;;;;;;;;;;;;;;;;;5039563;28;19917;-84
2023/03/01 14:01:51;;;;;;;;;;;;;;;;;;5041318;28;19916;-83
2023/03/01 14:04:16;;;;;;;;;;;;;;;;;;5039617;28;20405;-84
2023/03/01 14:06:41;;;;;;;;;;;;;;;;;;5037107;28;19921;-83
2023/03/01 14:09:06;;;;;;;;;;;;;;;;;;5041785;28;20368;-84
2023/03/01 14:11:31;;;;;;;;;;;;;;;;;;5030309;28;19924;-84
2023/03/01 14:13:57;;;;;;;;;;;;;;;;;;5040825;28;20160;-84
2023/03/01 14:16:23;;;;;;;;;;;;;;;;;;5041276;28;19917;-83
2023/03/01 14:18:49;;;;;;;;;;;;;;;;;;5046993;28;19916;-83
2023/03/01 14:21:14;;;;;;;;;;;;;;;;;;5039294;28;20508;-84
2023/03/01 14:23:39;;;;;;;;;;;;;;;;;;5037339;28;20153;-84
2023/03/01 14:26:04;;;;;;;;;;;;;;;;;;5038329;28;19921;-84
2023/03/01 14:28:29;;;;;;;;;;;;;;;;;;5037047;28;20055;-84
2023/03/01 14:30:55;;;;;;;;;;;;;;;;;;5038449;28;19917;-83
2023/03/01 14:33:20;;;;;;;;;;;;;;;;;;5039644;28;19913;-83
2023/03/01 14:35:45;;;;;;;;;;;;;;;;;;5042767;28;19947;-84
2023/03/01 14:38:10;;;;;;;;;;;;;;;;;;5039689;28;20131;-84
2023/03/01 14:40:35;;;;;;;;;;;;;;;;;;5024861;28;19998;-83
2023/03/01 14:43:01;;;;;;;;;;;;;;;;;;5042071;28;19921;-83
2023/03/01 14:45:26;;;;;;;;;;;;;;;;;;5040809;28;19920;-83
2023/03/01 14:47:51;;;;;;;;;;;;;;;;;;5037528;28;20065;-83
2023/03/01 14:50:16;;;;;;;;;;;;;;;;;;5045735;28;19912;-83
2023/03/01 14:52:41;;;;;;;;;;;;;;;;;;5042539;28;20457;-83
2023/03/01 14:55:07;;;;;;;;;;;;;;;;;;5043649;28;19927;-83
2023/03/01 14:57:32;;;;;;;;;;;;;;;;;;5034913;28;20264;-83
2023/03/01 14:59:57;;;;;;;;;;;;;;;;;;5038724;28;20398;-83
2023/03/01 15:02:22;;;;;;;;;;;;;;;;;;5042940;28;19916;-83
2023/03/01 15:04:47;;;;;;;;;;;;;;;;;;5040077;28;19924;-82
2023/03/01 15:07:13;;;;;;;;;;;;;;;;;;5028186;28;20011;-82
2023/03/01 15:09:38;;;;;;;;;;;;;;;;;;5039971;28;19920;-83
2023/03/01 15:12:03;;;;;;;;;;;;;;;;;;5033840;28;19959;-83
2023/03/01 15:14:28;;;;;;;;;;;;;;;;;;5040824;28;19916;-83
2023/03/01 15:16:54;;;;;;;;;;;;;;;;;;5041630;28;20398;-82
2023/03/01 15:19:19;;;;;;;;;;;;;;;;;;5036157;28;20026;-82
2023/03/01 15:21:44;;;;;;;;;;;;;;;;;;5034265;28;19920;-82
2023/03/01 15:24:11;;;;;;;;;;;;;;;;;;5045644;28;19917;-82
2023/03/01 15:26:36;;;;;;;;;;;;;;;;;;5041412;28;19932;-82
2023/03/01 15:29:02;;;;;;;;;;;;;;;;;;5037463;28;19921;-82
2023/03/01 15:31:27;;;;;;;;;;;;;;;;;;5041640;28;19917;-82
2023/03/01 15:33:52;;;;;;;;;;;;;;;;;;5040280;28;19913;-82
2023/03/01 15:36:17;;;;;;;;;;;;;;;;;;5040437;28;20019;-82
2023/03/01 15:38:43;;;;;;;;;;;;;;;;;;5040895;28;19927;-82
2023/03/01 15:41:08;;;;;;;;;;;;;;;;;;5037741;28;19928;-82
2023/03/01 15:43:34;;;;;;;;;;;;;;;;;;5033916;28;20294;-82
2023/03/01 15:45:59;;;;;;;;;;;;;;;;;;5043421;28;19912;-82
2023/03/01 15:48:26;;;;;;;;;;;;;;;;;;5036126;28;19956;-82
2023/03/01 15:50:51;;;;;;;;;;;;;;;;;;5041864;28;19917;-82
2023/03/01 15:53:16;;;;;;;;;;;;;;;;;;5043215;28;19917;-82
2023/03/01 15:55:41;;;;;;;;;;;;;;;;;;5037909;28;19947;-82
2023/03/01 15:58:07;;;;;;;;;;;;;;;;;;5044204;28;19943;-82
2023/03/01 16:00:32;;;;;;;;;;;;;;;;;;5040145;28;19955;-82
2023/03/01 16:02:57;;;;;;;;;;;;;;;;;;5042401;28;20313;-82
2023/03/01 16:05:22;;;;;;;;;;;;;;;;;;5036511;28;20008;-82
2023/03/01 16:07:48;;;;;;;;;;;;;;;;;;5042500;28;19954;-82
2023/03/01 16:10:13;;;;;;;;;;;;;;;;;;5037684;28;19984;-82
2023/03/01 16:12:39;;;;;;;;;;;;;;;;;;5042146;28;20314;-82
2023/03/01 16:15:04;;;;;;;;;;;;;;;;;;5044731;28;19916;-81
2023/03/01 16:17:29;;;;;;;;;;;;;;;;;;5040513;28;19952;-82
2023/03/01 16:19:54;;;;;;;;;;;;;;;;;;5047039;28;20387;-82
2023/03/01 16:22:24;;;;;;;;;;;;;;;;;;5040854;28;19924;-82
2023/03/01 16:24:49;;;;;;;;;;;;;;;;;;5043607;28;19956;-82
2023/03/01 16:27:15;;;;;;;;;;;;;;;;;;5051630;28;20397;-82
2023/03/01 16:29:40;;;;;;;;;;;;;;;;;;5040172;28;19924;-82
2023/03/01 16:32:05;;;;;;;;;;;;;;;;;;5044450;28;19921;-82
2023/03/01 16:34:30;;;;;;;;;;;;;;;;;;5049257;28;20370;-81